Time;durP1;ratioP1;P1;durP2;ratioP2;P2;SDS_P1;SDS_P2;PMS_P1;PMS_P2;Temp;Humidity;BMP_temperature;BMP_pressure;BME280_temperature;BME280_humidity;BME280_pressure;Samples;Min_cycle;Max_cycle;Signal;HPM_P1;HPM_P2
2022/04/28 00:00:44;;;;;;;;;;;10.90;71.20;;;;;;5050303;28;19974;-73
2022/04/28 00:03:10;;;;;;;;;;;10.90;71.30;;;;;;5051410;28;20374;-74
2022/04/28 00:05:35;;;;;;;;;;;10.90;71.70;;;;;;5050396;28;20004;-73
2022/04/28 00:08:01;;;;;;;;;;;10.90;71.90;;;;;;5050282;28;19928;-73
2022/04/28 00:10:27;;;;;;;;;;;10.80;72.00;;;;;;5051558;28;19908;-74
2022/04/28 00:12:52;;;;;;;;;;;10.80;72.40;;;;;;5051049;28;20303;-73
2022/04/28 00:15:18;;;;;;;;;;;10.80;72.60;;;;;;5051165;28;19920;-74
2022/04/28 00:17:43;;;;;;;;;;;10.80;72.70;;;;;;5051252;28;20038;-73
2022/04/28 00:20:09;;;;;;;;;;;10.80;72.80;;;;;;5050976;28;20310;-73
2022/04/28 00:22:35;;;;;;;;;;;10.70;72.90;;;;;;5051414;28;19936;-74
2022/04/28 00:25:00;;;;;;;;;;;10.70;73.10;;;;;;5051213;28;20227;-73
2022/04/28 00:27:26;;;;;;;;;;;10.70;73.30;;;;;;5051071;28;19909;-73
2022/04/28 00:29:51;;;;;;;;;;;10.70;73.50;;;;;;5050015;28;20368;-74
2022/04/28 00:32:17;;;;;;;;;;;10.70;73.70;;;;;;5050861;28;19912;-74
2022/04/28 00:34:42;;;;;;;;;;;10.70;74.00;;;;;;5051324;28;19915;-73
2022/04/28 00:37:09;;;;;;;;;;;10.60;74.20;;;;;;5050938;28;19924;-73
2022/04/28 00:39:35;;;;;;;;;;;10.60;74.40;;;;;;5050638;28;19931;-74
2022/04/28 00:42:00;;;;;;;;;;;10.60;74.40;;;;;;5050774;28;20330;-74
2022/04/28 00:44:25;;;;;;;;;;;10.60;74.40;;;;;;5050981;28;19908;-73
2022/04/28 00:46:51;;;;;;;;;;;10.60;74.80;;;;;;5049756;28;20468;-74
2022/04/28 00:52:01;;;;;;;;;;;10.50;74.80;;;;;;5050515;28;20259;-75
2022/04/28 00:54:28;;;;;;;;;;;10.50;75.30;;;;;;5050828;28;19908;-74
2022/04/28 00:56:53;;;;;;;;;;;10.50;75.40;;;;;;5049514;28;19908;-74
2022/04/28 00:59:19;;;;;;;;;;;10.50;75.50;;;;;;5050593;28;19920;-75
2022/04/28 01:01:45;;;;;;;;;;;10.50;75.50;;;;;;5050047;28;20325;-75
2022/04/28 01:04:10;;;;;;;;;;;10.50;75.90;;;;;;5051439;28;19974;-74
2022/04/28 01:06:36;;;;;;;;;;;10.40;76.10;;;;;;5054527;28;20339;-74
2022/04/28 01:09:01;;;;;;;;;;;10.40;76.30;;;;;;5054560;28;20241;-75
2022/04/28 01:11:28;;;;;;;;;;;10.40;76.40;;;;;;5054376;28;19912;-74
2022/04/28 01:13:53;;;;;;;;;;;10.30;76.40;;;;;;5053159;28;19995;-74
2022/04/28 01:16:18;;;;;;;;;;;10.30;76.90;;;;;;5054728;28;19992;-74
2022/04/28 01:18:44;;;;;;;;;;;10.20;77.40;;;;;;5054499;28;19916;-75
2022/04/28 01:21:13;;;;;;;;;;;10.20;77.20;;;;;;5053237;28;19913;-74
2022/04/28 01:23:39;;;;;;;;;;;10.30;77.50;;;;;;5054129;28;19943;-74
2022/04/28 01:26:14;;;;;;;;;;;10.30;77.60;;;;;;5054153;28;20520;-74
2022/04/28 01:28:39;;;;;;;;;;;10.20;77.90;;;;;;5054442;28;19991;-75
2022/04/28 01:31:11;;;;;;;;;;;10.20;78.70;;;;;;5054002;28;20003;-76
2022/04/28 01:33:36;;;;;;;;;;;10.10;79.20;;;;;;5054162;28;19908;-75
2022/04/28 01:36:04;;;;;;;;;;;9.90;81.20;;;;;;5052670;28;19919;-75
2022/04/28 01:38:44;;;;;;;;;;;9.90;81.60;;;;;;5054202;28;19908;-74
2022/04/28 01:41:16;;;;;;;;;;;9.90;81.50;;;;;;5053569;28;19913;-74
2022/04/28 01:43:41;;;;;;;;;;;9.80;82.00;;;;;;5054540;28;20112;-74
2022/04/28 01:46:10;;;;;;;;;;;9.70;82.70;;;;;;5054079;28;19913;-73
2022/04/28 01:48:36;;;;;;;;;;;9.60;83.20;;;;;;5053777;28;20466;-74
2022/04/28 01:56:36;;;;;;;;;;;9.60;83.80;;;;;;5053644;28;19935;-73
2022/04/28 01:59:01;;;;;;;;;;;9.60;83.30;;;;;;5053433;28;20318;-75
2022/04/28 02:01:27;;;;;;;;;;;9.70;83.10;;;;;;5053855;28;19932;-75
2022/04/28 02:03:52;;;;;;;;;;;9.80;82.80;;;;;;5053572;28;19998;-75
2022/04/28 02:06:18;;;;;;;;;;;9.90;82.90;;;;;;5053420;28;19919;-74
2022/04/28 02:08:45;;;;;;;;;;;9.60;84.30;;;;;;5053494;28;19908;-73
2022/04/28 02:11:10;;;;;;;;;;;9.40;85.30;;;;;;5052129;28;19919;-73
2022/04/28 02:13:36;;;;;;;;;;;9.40;85.90;;;;;;5053723;28;20254;-74
2022/04/28 02:16:02;;;;;;;;;;;9.40;86.00;;;;;;5052288;28;20208;-74
2022/04/28 02:18:27;;;;;;;;;;;9.40;86.20;;;;;;5053193;28;19908;-73
2022/04/28 02:20:53;;;;;;;;;;;9.30;86.60;;;;;;5052963;28;20393;-73
2022/04/28 02:23:18;;;;;;;;;;;9.20;87.00;;;;;;5052987;28;19909;-73
2022/04/28 02:25:44;;;;;;;;;;;9.20;87.30;;;;;;5053333;28;19916;-73
2022/04/28 02:28:09;;;;;;;;;;;9.10;87.70;;;;;;5052934;28;19909;-72
2022/04/28 02:30:35;;;;;;;;;;;9.10;88.20;;;;;;5052840;28;20124;-73
2022/04/28 02:33:09;;;;;;;;;;;9.00;88.50;;;;;;5051701;28;19909;-73
2022/04/28 02:35:35;;;;;;;;;;;8.90;88.70;;;;;;5052883;28;19912;-74
2022/04/28 02:38:01;;;;;;;;;;;8.80;89.00;;;;;;5052995;28;19983;-73
2022/04/28 02:40:26;;;;;;;;;;;8.80;89.80;;;;;;5052941;28;19913;-73
2022/04/28 02:42:52;;;;;;;;;;;8.90;89.40;;;;;;5052681;28;19952;-72
2022/04/28 02:45:17;;;;;;;;;;;8.90;89.90;;;;;;5052597;28;20290;-73
2022/04/28 02:47:43;;;;;;;;;;;8.90;89.70;;;;;;5052499;28;19909;-72
2022/04/28 02:50:11;;;;;;;;;;;9.00;89.70;;;;;;5052473;28;19909;-74
2022/04/28 02:52:39;;;;;;;;;;;9.00;89.50;;;;;;5052803;28;19905;-73
2022/04/28 02:55:06;;;;;;;;;;;9.00;89.20;;;;;;5052444;28;19923;-74
2022/04/28 02:57:32;;;;;;;;;;;9.00;89.10;;;;;;5051147;28;20334;-73
2022/04/28 02:59:58;;;;;;;;;;;9.10;88.90;;;;;;5052261;28;20349;-73
2022/04/28 03:02:24;;;;;;;;;;;9.20;88.20;;;;;;5052253;28;19909;-73
2022/04/28 03:04:49;;;;;;;;;;;9.20;88.70;;;;;;5052710;28;20495;-74
2022/04/28 03:12:44;;;;;;;;;;;8.80;90.10;;;;;;5052117;28;19945;-74
2022/04/28 03:15:10;;;;;;;;;;;8.80;90.30;;;;;;5052062;28;19987;-74
2022/04/28 03:17:36;;;;;;;;;;;8.70;90.40;;;;;;5052112;28;19939;-73
2022/04/28 03:20:02;;;;;;;;;;;8.60;90.50;;;;;;5050967;28;19915;-74
2022/04/28 03:22:29;;;;;;;;;;;8.60;90.70;;;;;;5052329;28;19955;-74
2022/04/28 03:24:54;;;;;;;;;;;8.60;90.70;;;;;;5051939;28;19909;-74
2022/04/28 03:27:20;;;;;;;;;;;8.70;90.70;;;;;;5051726;28;20282;-72
2022/04/28 03:29:45;;;;;;;;;;;8.60;90.60;;;;;;5050892;28;20250;-73
2022/04/28 03:32:10;;;;;;;;;;;8.60;90.70;;;;;;5051629;28;19921;-73
2022/04/28 03:34:36;;;;;;;;;;;8.50;90.90;;;;;;5052061;28;20309;-73
2022/04/28 03:37:02;;;;;;;;;;;8.50;91.10;;;;;;5051481;28;19913;-73
2022/04/28 03:39:28;;;;;;;;;;;8.60;90.90;;;;;;5050166;28;20258;-72
2022/04/28 03:41:53;;;;;;;;;;;8.50;91.10;;;;;;5051404;28;19999;-73
2022/04/28 03:44:19;;;;;;;;;;;8.50;91.00;;;;;;5051499;28;20003;-74
2022/04/28 03:46:44;;;;;;;;;;;8.60;90.90;;;;;;5052042;28;19909;-73
2022/04/28 03:49:11;;;;;;;;;;;8.50;91.20;;;;;;5051746;28;19913;-74
2022/04/28 03:51:36;;;;;;;;;;;8.50;91.30;;;;;;5051687;28;19927;-73
2022/04/28 03:54:03;;;;;;;;;;;8.50;91.30;;;;;;5053785;28;19984;-72
2022/04/28 03:56:30;;;;;;;;;;;8.60;91.20;;;;;;5055225;28;19908;-74
2022/04/28 03:58:56;;;;;;;;;;;8.60;91.30;;;;;;5051412;28;19915;-74
2022/04/28 04:01:21;;;;;;;;;;;8.60;91.30;;;;;;5051284;28;19900;-74
2022/04/28 04:03:46;;;;;;;;;;;8.60;91.40;;;;;;5052137;28;20022;-73
2022/04/28 04:06:12;;;;;;;;;;;8.60;91.40;;;;;;5053811;28;19909;-73
2022/04/28 04:08:37;;;;;;;;;;;8.60;91.30;;;;;;5054270;28;19909;-73
2022/04/28 04:11:09;;;;;;;;;;;8.60;91.30;;;;;;5052242;28;20015;-73
2022/04/28 04:13:34;;;;;;;;;;;8.50;91.40;;;;;;5051745;28;19904;-72
2022/04/28 04:16:00;;;;;;;;;;;8.60;91.30;;;;;;5051388;28;19920;-74
2022/04/28 04:18:25;;;;;;;;;;;8.60;91.20;;;;;;5051078;28;20337;-73
2022/04/28 04:20:51;;;;;;;;;;;8.70;91.10;;;;;;5051393;28;19917;-74
2022/04/28 04:23:16;;;;;;;;;;;8.60;91.00;;;;;;5051232;28;19908;-73
2022/04/28 04:25:42;;;;;;;;;;;8.60;91.30;;;;;;5051356;28;19912;-72
2022/04/28 04:28:07;;;;;;;;;;;8.60;91.20;;;;;;5049846;28;19909;-74
2022/04/28 04:33:18;;;;;;;;;;;8.60;91.20;;;;;;5051284;28;19981;-74
2022/04/28 04:35:44;;;;;;;;;;;8.60;91.20;;;;;;5050777;28;19908;-73
2022/04/28 04:38:09;;;;;;;;;;;8.70;91.10;;;;;;5049893;28;19938;-74
2022/04/28 04:40:34;;;;;;;;;;;8.80;91.20;;;;;;5053966;28;19974;-73
2022/04/28 04:43:00;;;;;;;;;;;8.70;91.20;;;;;;5054784;28;19917;-74
2022/04/28 04:45:26;;;;;;;;;;;8.70;91.10;;;;;;5053650;28;20329;-74
2022/04/28 04:47:51;;;;;;;;;;;8.80;91.20;;;;;;5054721;28;19908;-73
2022/04/28 04:50:16;;;;;;;;;;;8.80;91.40;;;;;;5054574;28;20325;-73
2022/04/28 04:52:42;;;;;;;;;;;8.70;91.60;;;;;;5055140;28;19905;-73
2022/04/28 04:55:08;;;;;;;;;;;8.70;91.70;;;;;;5054656;28;19930;-74
2022/04/28 04:57:33;;;;;;;;;;;8.60;91.70;;;;;;5054882;28;19956;-73
2022/04/28 04:59:59;;;;;;;;;;;8.70;91.60;;;;;;5053622;28;20012;-73
2022/04/28 05:02:24;;;;;;;;;;;8.70;91.50;;;;;;5054548;28;19962;-73
2022/04/28 05:04:50;;;;;;;;;;;8.80;91.40;;;;;;5055008;28;19909;-74
2022/04/28 05:07:16;;;;;;;;;;;8.90;91.20;;;;;;5054511;28;19923;-74
2022/04/28 05:09:42;;;;;;;;;;;8.80;91.10;;;;;;5054147;28;20004;-74
2022/04/28 05:12:08;;;;;;;;;;;8.80;91.20;;;;;;5054187;28;20033;-74
2022/04/28 05:14:34;;;;;;;;;;;8.90;91.20;;;;;;5054039;28;20000;-74
2022/04/28 05:16:59;;;;;;;;;;;9.00;91.00;;;;;;5054062;28;19909;-73
2022/04/28 05:19:25;;;;;;;;;;;9.10;90.80;;;;;;5054543;28;19909;-74
2022/04/28 05:21:51;;;;;;;;;;;9.20;91.00;;;;;;5054045;28;19909;-75
2022/04/28 05:24:17;;;;;;;;;;;9.20;90.60;;;;;;5052875;28;19913;-74
2022/04/28 05:26:42;;;;;;;;;;;9.20;90.70;;;;;;5053930;28;20338;-74
2022/04/28 05:29:08;;;;;;;;;;;9.20;90.70;;;;;;5054011;28;20445;-75
2022/04/28 05:31:33;;;;;;;;;;;9.20;90.60;;;;;;5053994;28;19909;-74
2022/04/28 05:33:59;;;;;;;;;;;9.30;90.70;;;;;;5052691;28;19913;-75
2022/04/28 05:36:26;;;;;;;;;;;9.30;90.50;;;;;;5052514;28;19909;-74
2022/04/28 05:38:52;;;;;;;;;;;9.40;90.40;;;;;;5053563;28;20136;-74
2022/04/28 05:41:17;;;;;;;;;;;9.40;90.20;;;;;;5053241;28;19917;-74
2022/04/28 05:46:44;;;;;;;;;;;9.50;90.10;;;;;;4972849;28;19910;-75
2022/04/28 05:49:09;;;;;;;;;;;9.50;90.10;;;;;;5036649;28;19912;-74
2022/04/28 05:51:35;;;;;;;;;;;9.50;90.10;;;;;;5052215;28;19928;-74
2022/04/28 05:54:00;;;;;;;;;;;9.60;90.00;;;;;;5053726;28;19912;-75
2022/04/28 05:56:26;;;;;;;;;;;9.70;90.00;;;;;;5053718;28;19916;-75
2022/04/28 05:58:52;;;;;;;;;;;9.70;90.00;;;;;;5053527;28;19947;-75
2022/04/28 06:01:18;;;;;;;;;;;9.70;89.60;;;;;;5052825;28;19916;-75
2022/04/28 06:03:43;;;;;;;;;;;9.70;89.50;;;;;;5053168;28;19909;-75
2022/04/28 06:06:09;;;;;;;;;;;9.70;89.60;;;;;;5052088;28;19966;-75
2022/04/28 06:08:35;;;;;;;;;;;9.80;89.70;;;;;;5053218;28;19920;-75
2022/04/28 06:11:01;;;;;;;;;;;9.80;89.60;;;;;;5051843;28;19913;-74
2022/04/28 06:13:26;;;;;;;;;;;9.90;89.60;;;;;;5053546;28;19983;-74
2022/04/28 06:15:52;;;;;;;;;;;9.90;89.50;;;;;;5051785;28;20344;-75
2022/04/28 06:18:18;;;;;;;;;;;9.90;89.40;;;;;;5052033;28;19973;-75
2022/04/28 06:20:44;;;;;;;;;;;10.10;88.10;;;;;;5051752;28;19948;-75
2022/04/28 06:23:11;;;;;;;;;;;10.20;88.00;;;;;;5052898;28;19955;-75
2022/04/28 06:25:36;;;;;;;;;;;10.10;88.00;;;;;;5052239;28;19904;-75
2022/04/28 06:28:02;;;;;;;;;;;10.10;88.00;;;;;;5052869;28;19924;-75
2022/04/28 06:30:27;;;;;;;;;;;10.20;87.70;;;;;;5051423;28;19909;-74
2022/04/28 06:32:53;;;;;;;;;;;10.30;87.60;;;;;;5052922;28;19920;-76
2022/04/28 06:35:19;;;;;;;;;;;10.40;87.10;;;;;;5052663;28;19920;-76
2022/04/28 06:37:44;;;;;;;;;;;10.30;86.30;;;;;;5053038;28;20242;-76
2022/04/28 06:40:12;;;;;;;;;;;10.40;86.20;;;;;;5051219;28;19928;-74
2022/04/28 06:42:43;;;;;;;;;;;10.40;85.50;;;;;;5052427;28;19915;-75
2022/04/28 06:45:11;;;;;;;;;;;10.50;85.60;;;;;;5052466;28;19931;-75
2022/04/28 06:47:36;;;;;;;;;;;10.60;85.50;;;;;;5052474;28;19920;-75
2022/04/28 06:50:02;;;;;;;;;;;10.70;85.30;;;;;;5051987;28;19908;-75
2022/04/28 06:52:28;;;;;;;;;;;11.00;85.00;;;;;;5052710;28;19966;-75
2022/04/28 06:54:53;;;;;;;;;;;11.50;84.00;;;;;;5052166;28;19916;-75
2022/04/28 06:57:19;;;;;;;;;;;11.90;82.70;;;;;;5052392;28;20293;-74
2022/04/28 06:59:45;;;;;;;;;;;12.70;82.00;;;;;;5052185;28;20414;-74
2022/04/28 07:02:10;;;;;;;;;;;13.20;79.10;;;;;;5051858;28;19913;-76
2022/04/28 07:04:36;;;;;;;;;;;13.80;77.80;;;;;;5052507;28;19905;-75
2022/04/28 07:07:01;;;;;;;;;;;14.30;75.90;;;;;;5052075;28;19919;-75
2022/04/28 07:09:27;;;;;;;;;;;14.60;74.20;;;;;;5050944;28;19974;-75
2022/04/28 07:11:52;;;;;;;;;;;14.70;72.40;;;;;;5050774;28;19966;-75
2022/04/28 07:14:18;;;;;;;;;;;15.10;71.80;;;;;;5051868;28;19999;-76
2022/04/28 07:16:43;;;;;;;;;;;15.60;70.00;;;;;;5052441;28;19913;-75
2022/04/28 07:19:09;;;;;;;;;;;16.00;69.10;;;;;;5052171;28;20074;-76
2022/04/28 07:21:35;;;;;;;;;;;16.40;67.40;;;;;;5050750;28;19909;-76
2022/04/28 07:24:00;;;;;;;;;;;16.70;66.10;;;;;;5051898;28;19912;-76
2022/04/28 07:26:26;;;;;;;;;;;17.10;65.00;;;;;;5051589;28;19920;-75
2022/04/28 07:28:51;;;;;;;;;;;17.80;63.50;;;;;;5051788;28;19905;-76
2022/04/28 07:31:17;;;;;;;;;;;18.30;61.00;;;;;;5052297;28;19905;-75
2022/04/28 07:33:43;;;;;;;;;;;18.70;60.20;;;;;;5052024;28;20334;-76
2022/04/28 07:36:08;;;;;;;;;;;19.20;58.00;;;;;;5050487;28;19919;-76
2022/04/28 07:38:34;;;;;;;;;;;19.70;57.20;;;;;;5051640;28;20014;-76
2022/04/28 07:41:08;;;;;;;;;;;20.00;56.20;;;;;;5051045;28;20461;-76
2022/04/28 07:43:34;;;;;;;;;;;20.60;55.00;;;;;;5050888;28;20405;-76
2022/04/28 07:45:59;;;;;;;;;;;20.70;54.30;;;;;;5051568;28;19952;-76
2022/04/28 07:48:25;;;;;;;;;;;21.30;53.40;;;;;;5051540;28;20031;-75
2022/04/28 07:50:50;;;;;;;;;;;21.40;51.60;;;;;;5051209;28;20310;-76
2022/04/28 07:53:17;;;;;;;;;;;21.10;50.00;;;;;;5051216;28;19920;-75
2022/04/28 07:55:42;;;;;;;;;;;20.80;50.30;;;;;;5050691;28;19905;-76
2022/04/28 07:58:08;;;;;;;;;;;21.20;50.80;;;;;;5051235;28;20342;-75
2022/04/28 08:00:33;;;;;;;;;;;21.70;49.80;;;;;;5051388;28;19908;-75
2022/04/28 08:02:59;;;;;;;;;;;22.40;50.10;;;;;;5051266;28;19912;-76
2022/04/28 08:05:25;;;;;;;;;;;23.10;48.80;;;;;;5051138;28;19920;-75
2022/04/28 08:07:50;;;;;;;;;;;23.30;47.50;;;;;;5051584;28;19909;-75
2022/04/28 08:10:16;;;;;;;;;;;23.00;47.10;;;;;;5051200;28;19939;-76
2022/04/28 08:12:41;;;;;;;;;;;23.40;47.60;;;;;;5051170;28;19920;-75
2022/04/28 08:15:07;;;;;;;;;;;24.20;46.80;;;;;;5049545;28;19919;-75
2022/04/28 08:17:33;;;;;;;;;;;24.60;45.70;;;;;;5051062;28;19908;-75
2022/04/28 08:19:59;;;;;;;;;;;25.20;46.00;;;;;;5051000;28;20114;-75
2022/04/28 08:22:24;;;;;;;;;;;25.10;43.20;;;;;;5051493;28;19900;-75
2022/04/28 08:24:50;;;;;;;;;;;25.20;43.40;;;;;;5050788;28;19920;-75
2022/04/28 08:27:15;;;;;;;;;;;25.10;42.20;;;;;;5050982;28;20286;-75
2022/04/28 08:29:41;;;;;;;;;;;25.40;41.80;;;;;;5051037;28;19909;-74
2022/04/28 08:32:07;;;;;;;;;;;25.00;40.50;;;;;;5049608;28;20005;-76
2022/04/28 08:34:33;;;;;;;;;;;25.30;43.20;;;;;;5051296;28;20318;-75
2022/04/28 08:36:59;;;;;;;;;;;26.10;41.60;;;;;;5050834;28;19909;-75
2022/04/28 08:39:24;;;;;;;;;;;26.10;40.40;;;;;;5049413;28;19964;-76
2022/04/28 08:41:49;;;;;;;;;;;26.90;40.20;;;;;;5050897;28;19936;-76
2022/04/28 08:44:17;;;;;;;;;;;27.20;39.70;;;;;;5050897;28;19924;-75
2022/04/28 08:46:52;;;;;;;;;;;27.10;39.10;;;;;;5051131;28;19911;-75
2022/04/28 08:49:20;;;;;;;;;;;26.80;39.70;;;;;;5050977;28;20335;-74
2022/04/28 08:51:46;;;;;;;;;;;27.20;38.20;;;;;;5050713;28;19948;-74
2022/04/28 08:54:12;;;;;;;;;;;26.00;38.50;;;;;;5050688;28;20009;-74
2022/04/28 08:56:39;;;;;;;;;;;27.40;38.70;;;;;;5050692;28;20299;-75
2022/04/28 08:59:05;;;;;;;;;;;28.10;37.90;;;;;;5050845;28;19905;-75
2022/04/28 09:01:31;;;;;;;;;;;27.90;37.70;;;;;;5051289;28;19901;-75
2022/04/28 09:03:57;;;;;;;;;;;28.80;37.00;;;;;;5050770;28;19959;-75
2022/04/28 09:06:23;;;;;;;;;;;28.50;36.70;;;;;;5050843;28;19908;-76
2022/04/28 09:08:50;;;;;;;;;;;28.30;37.30;;;;;;5049576;28;19936;-75
2022/04/28 09:11:25;;;;;;;;;;;27.60;36.30;;;;;;5050383;28;19924;-75
2022/04/28 09:14:10;;;;;;;;;;;28.40;37.10;;;;;;5051051;28;20346;-76
2022/04/28 09:16:37;;;;;;;;;;;29.20;36.20;;;;;;5050627;28;20476;-76
2022/04/28 09:19:02;;;;;;;;;;;28.30;35.40;;;;;;5050870;28;19909;-76
2022/04/28 09:21:30;;;;;;;;;;;28.00;35.70;;;;;;5050720;28;19908;-75
2022/04/28 09:23:56;;;;;;;;;;;27.90;35.90;;;;;;5050598;28;19912;-76
2022/04/28 09:26:22;;;;;;;;;;;28.80;35.80;;;;;;5052806;28;19920;-76
2022/04/28 09:28:48;;;;;;;;;;;29.30;35.50;;;;;;5054733;28;19932;-76
2022/04/28 09:31:23;;;;;;;;;;;29.50;35.20;;;;;;5054087;28;19955;-76
2022/04/28 09:33:49;;;;;;;;;;;29.70;34.90;;;;;;5053855;28;19935;-76
2022/04/28 09:36:21;;;;;;;;;;;29.80;34.80;;;;;;5052816;28;19908;-75
2022/04/28 09:38:51;;;;;;;;;;;30.00;34.70;;;;;;5052873;28;19995;-76
2022/04/28 09:44:12;;;;;;;;;;;30.00;34.10;;;;;;5054041;28;19939;-74
2022/04/28 09:46:44;;;;;;;;;;;29.70;33.90;;;;;;5054213;28;19904;-76
2022/04/28 09:49:10;;;;;;;;;;;29.00;34.40;;;;;;5053761;28;20394;-76
2022/04/28 09:51:38;;;;;;;;;;;28.30;33.80;;;;;;5053511;28;19963;-75
2022/04/28 09:54:07;;;;;;;;;;;29.20;34.90;;;;;;5052549;28;19916;-76
2022/04/28 09:56:34;;;;;;;;;;;29.70;33.90;;;;;;5053696;28;19913;-76
2022/04/28 09:59:00;;;;;;;;;;;29.70;33.90;;;;;;5053641;28;19908;-75
2022/04/28 10:01:28;;;;;;;;;;;29.90;33.40;;;;;;5053327;28;19909;-75
2022/04/28 10:03:54;;;;;;;;;;;29.40;34.00;;;;;;5053672;28;20252;-76
2022/04/28 10:06:24;;;;;;;;;;;29.40;34.00;;;;;;5053552;28;19913;-76
2022/04/28 10:08:51;;;;;;;;;;;28.40;33.60;;;;;;5053503;28;20006;-75
2022/04/28 10:11:23;;;;;;;;;;;28.70;34.80;;;;;;5053414;28;19913;-76
2022/04/28 10:13:49;;;;;;;;;;;28.40;35.00;;;;;;5053779;28;19988;-75
2022/04/28 10:16:23;;;;;;;;;;;28.00;36.20;;;;;;5053217;28;20247;-75
2022/04/28 10:18:52;;;;;;;;;;;28.10;35.40;;;;;;5053438;28;20235;-74
2022/04/28 10:21:22;;;;;;;;;;;28.00;35.80;;;;;;5052030;28;19909;-75
2022/04/28 10:32:23;;;;;;;;;;;26.50;37.50;;;;;;5052995;28;20282;-75
2022/04/28 10:35:06;;;;;;;;;;;25.30;38.30;;;;;;5051816;28;19912;-75
2022/04/28 10:37:35;;;;;;;;;;;24.10;38.70;;;;;;5052253;28;20330;-74
2022/04/28 10:40:01;;;;;;;;;;;24.10;40.10;;;;;;5052475;28;19925;-75
2022/04/28 10:42:27;;;;;;;;;;;23.50;40.90;;;;;;5051120;28;19995;-74
2022/04/28 10:44:57;;;;;;;;;;;23.60;41.10;;;;;;5051625;28;19992;-74
2022/04/28 10:47:36;;;;;;;;;;;22.70;41.70;;;;;;5052509;28;20262;-74
2022/04/28 10:50:20;;;;;;;;;;;21.70;42.20;;;;;;5051334;28;19909;-74
2022/04/28 10:52:55;;;;;;;;;;;21.40;43.30;;;;;;5051949;28;19913;-74
2022/04/28 10:55:23;;;;;;;;;;;21.30;43.20;;;;;;5051826;28;20251;-75
2022/04/28 10:57:49;;;;;;;;;;;21.30;43.20;;;;;;5052219;28;19913;-75
2022/04/28 11:00:32;;;;;;;;;;;21.60;43.60;;;;;;5051301;28;19909;-73
2022/04/28 11:02:58;;;;;;;;;;;21.60;43.30;;;;;;5052438;28;19909;-74
2022/04/28 11:05:31;;;;;;;;;;;20.90;43.70;;;;;;5052378;28;19909;-74
2022/04/28 11:07:58;;;;;;;;;;;21.00;44.10;;;;;;5052130;28;19905;-74
2022/04/28 11:10:23;;;;;;;;;;;21.20;43.60;;;;;;5052455;28;19924;-74
2022/04/28 11:12:50;;;;;;;;;;;20.90;44.10;;;;;;5052088;28;19985;-74
2022/04/28 11:15:17;;;;;;;;;;;20.70;43.90;;;;;;5050706;28;20234;-74
2022/04/28 11:17:44;;;;;;;;;;;21.00;44.10;;;;;;5052363;28;20352;-75
2022/04/28 11:20:12;;;;;;;;;;;20.00;44.10;;;;;;5051843;28;19916;-75
2022/04/28 11:22:51;;;;;;;;;;;20.40;45.20;;;;;;5051340;28;19901;-74
2022/04/28 11:25:18;;;;;;;;;;;20.60;44.80;;;;;;5050252;28;19909;-75
2022/04/28 11:27:48;;;;;;;;;;;20.20;45.30;;;;;;5050607;28;19932;-75
2022/04/28 11:30:15;;;;;;;;;;;20.60;45.30;;;;;;5051800;28;19912;-75
2022/04/28 11:32:49;;;;;;;;;;;20.70;45.20;;;;;;5051744;28;20223;-74
2022/04/28 11:35:15;;;;;;;;;;;20.80;45.10;;;;;;5051767;28;19915;-76
2022/04/28 11:37:40;;;;;;;;;;;20.50;45.50;;;;;;5050957;28;20312;-74
2022/04/28 11:40:11;;;;;;;;;;;20.10;45.70;;;;;;5050185;28;20431;-75
2022/04/28 11:42:37;;;;;;;;;;;20.30;45.40;;;;;;5050334;28;19927;-75
2022/04/28 11:45:02;;;;;;;;;;;20.00;45.50;;;;;;5050478;28;20393;-75
2022/04/28 11:47:28;;;;;;;;;;;20.30;45.10;;;;;;5051465;28;19909;-75
2022/04/28 11:49:57;;;;;;;;;;;20.30;44.90;;;;;;5051419;28;19969;-74
2022/04/28 11:52:24;;;;;;;;;;;20.40;44.90;;;;;;5050768;28;19956;-75
2022/04/28 11:54:50;;;;;;;;;;;20.40;44.90;;;;;;5051331;28;19944;-74
2022/04/28 11:57:17;;;;;;;;;;;20.40;45.40;;;;;;5050200;28;19952;-75
2022/04/28 11:59:43;;;;;;;;;;;20.40;44.80;;;;;;5051160;28;19917;-75
2022/04/28 12:02:25;;;;;;;;;;;20.30;44.50;;;;;;5051101;28;19911;-75
2022/04/28 12:04:51;;;;;;;;;;;20.10;44.80;;;;;;5051500;28;19959;-75
2022/04/28 12:07:20;;;;;;;;;;;19.70;45.40;;;;;;5051324;28;19909;-74
2022/04/28 12:15:15;;;;;;;;;;;19.30;46.80;;;;;;5051090;28;20007;-74
2022/04/28 12:20:53;;;;;;;;;;;19.40;47.00;;;;;;5050812;28;19961;-75
2022/04/28 12:23:57;;;;;;;;;;;19.50;46.70;;;;;;5050962;28;19919;-74
2022/04/28 12:26:26;;;;;;;;;;;19.60;46.50;;;;;;4992390;28;20086;-75
2022/04/28 12:28:51;;;;;;;;;;;19.60;46.40;;;;;;5043853;28;20215;-75
2022/04/28 12:31:27;;;;;;;;;;;19.40;46.10;;;;;;5051036;28;19962;-76
2022/04/28 12:33:54;;;;;;;;;;;19.50;46.20;;;;;;5050732;28;19909;-74
2022/04/28 12:36:19;;;;;;;;;;;19.40;46.70;;;;;;5050864;28;19935;-75
2022/04/28 12:38:49;;;;;;;;;;;19.40;46.60;;;;;;5050977;28;20620;-75
2022/04/28 12:41:39;;;;;;;;;;;19.40;46.20;;;;;;5049519;28;19929;-75
2022/04/28 12:44:06;;;;;;;;;;;19.40;46.20;;;;;;5050648;28;19905;-74
2022/04/28 12:46:35;;;;;;;;;;;19.60;46.00;;;;;;5051066;28;20317;-74
2022/04/28 12:49:03;;;;;;;;;;;19.20;45.50;;;;;;5049510;28;19912;-76
2022/04/28 12:51:29;;;;;;;;;;;19.30;45.90;;;;;;5050460;28;19964;-74
2022/04/28 12:54:10;;;;;;;;;;;19.50;45.00;;;;;;5050608;28;19924;-74
2022/04/28 12:56:37;;;;;;;;;;;19.50;45.50;;;;;;5050699;28;20178;-74
2022/04/28 12:59:04;;;;;;;;;;;19.60;46.10;;;;;;5050341;28;19909;-74
2022/04/28 13:01:29;;;;;;;;;;;19.60;46.00;;;;;;5053353;28;19944;-74
2022/04/28 13:03:56;;;;;;;;;;;19.60;46.00;;;;;;5053147;28;19951;-74
2022/04/28 13:06:30;;;;;;;;;;;19.60;45.90;;;;;;5054121;28;19908;-75
2022/04/28 13:08:56;;;;;;;;;;;19.60;45.80;;;;;;5053270;28;19908;-75
2022/04/28 13:11:31;;;;;;;;;;;19.50;45.80;;;;;;5054153;28;19974;-74
2022/04/28 13:13:58;;;;;;;;;;;19.40;45.90;;;;;;5054210;28;20418;-74
2022/04/28 13:16:24;;;;;;;;;;;19.10;46.10;;;;;;5053422;28;19901;-74
2022/04/28 13:18:49;;;;;;;;;;;19.20;46.60;;;;;;5053946;28;19961;-74
2022/04/28 13:21:21;;;;;;;;;;;19.30;46.40;;;;;;5054008;28;19913;-74
2022/04/28 13:23:47;;;;;;;;;;;19.20;46.40;;;;;;5053979;28;20435;-75
2022/04/28 13:26:22;;;;;;;;;;;19.20;46.60;;;;;;5054060;28;19992;-75
2022/04/28 13:28:49;;;;;;;;;;;19.20;46.60;;;;;;5054605;28;19967;-75
2022/04/28 13:31:19;;;;;;;;;;;19.10;46.50;;;;;;5053815;28;20330;-75
2022/04/28 13:33:45;;;;;;;;;;;19.10;46.70;;;;;;5052724;28;19941;-74
2022/04/28 13:36:26;;;;;;;;;;;19.10;45.90;;;;;;5053402;28;19916;-75
2022/04/28 13:38:51;;;;;;;;;;;19.10;46.30;;;;;;5052385;28;20355;-75
2022/04/28 13:41:20;;;;;;;;;;;19.10;46.30;;;;;;5053496;28;20031;-74
2022/04/28 13:43:45;;;;;;;;;;;19.00;46.40;;;;;;5052993;28;19916;-73
2022/04/28 13:46:39;;;;;;;;;;;18.90;46.50;;;;;;5053583;28;19912;-74
2022/04/28 13:49:05;;;;;;;;;;;18.90;46.40;;;;;;5053406;28;19913;-74
2022/04/28 13:51:33;;;;;;;;;;;18.50;45.90;;;;;;5053328;28;19926;-73
2022/04/28 13:53:59;;;;;;;;;;;18.70;46.20;;;;;;5053291;28;19935;-74
2022/04/28 13:56:24;;;;;;;;;;;18.80;46.00;;;;;;5053247;28;19909;-75
2022/04/28 13:58:50;;;;;;;;;;;18.60;45.20;;;;;;5052330;28;19909;-75
2022/04/28 14:01:46;;;;;;;;;;;18.60;45.00;;;;;;5053297;28;19924;-74
2022/04/28 14:04:14;;;;;;;;;;;18.50;45.10;;;;;;5053237;28;20288;-74
2022/04/28 14:06:40;;;;;;;;;;;18.70;44.70;;;;;;5053257;28;20365;-75
2022/04/28 14:09:05;;;;;;;;;;;18.70;44.40;;;;;;5053034;28;19950;-76
2022/04/28 14:11:32;;;;;;;;;;;18.50;45.50;;;;;;5052258;28;19956;-74
2022/04/28 14:13:58;;;;;;;;;;;18.70;46.00;;;;;;5052484;28;20003;-74
2022/04/28 14:16:24;;;;;;;;;;;18.70;45.80;;;;;;5053225;28;19983;-74
2022/04/28 14:18:49;;;;;;;;;;;18.30;45.70;;;;;;5053161;28;20352;-74
2022/04/28 14:21:21;;;;;;;;;;;18.40;46.00;;;;;;5051918;28;19919;-73
2022/04/28 14:23:47;;;;;;;;;;;18.20;46.00;;;;;;5052717;28;19909;-74
2022/04/28 14:26:25;;;;;;;;;;;18.40;46.00;;;;;;5052836;28;19960;-73
2022/04/28 14:28:50;;;;;;;;;;;18.50;45.90;;;;;;5053038;28;19908;-74
2022/04/28 14:31:25;;;;;;;;;;;18.70;45.80;;;;;;5052426;28;20417;-74
2022/04/28 14:33:50;;;;;;;;;;;18.70;45.70;;;;;;5052750;28;19951;-73
2022/04/28 14:36:31;;;;;;;;;;;18.70;45.60;;;;;;5051432;28;20343;-75
2022/04/28 14:38:56;;;;;;;;;;;18.60;45.60;;;;;;5052544;28;19917;-74
2022/04/28 14:41:28;;;;;;;;;;;18.60;45.60;;;;;;5052221;28;20385;-75
2022/04/28 14:43:54;;;;;;;;;;;18.70;46.00;;;;;;5052284;28;20054;-75
2022/04/28 14:46:19;;;;;;;;;;;18.80;45.60;;;;;;5052742;28;20600;-74
2022/04/28 14:54:14;;;;;;;;;;;18.90;44.50;;;;;;5052351;28;19974;-74
2022/04/28 14:56:39;;;;;;;;;;;18.70;43.50;;;;;;5052118;28;20284;-74
2022/04/28 14:59:05;;;;;;;;;;;18.70;43.90;;;;;;5052059;28;19931;-74
2022/04/28 15:01:31;;;;;;;;;;;18.50;44.80;;;;;;5052324;28;19916;-74
2022/04/28 15:03:57;;;;;;;;;;;18.40;44.80;;;;;;5052027;28;20241;-74
2022/04/28 15:06:25;;;;;;;;;;;18.50;45.40;;;;;;5051995;28;19909;-74